Time;durP1;ratioP1;P1;durP2;ratioP2;P2;SDS_P1;SDS_P2;PMS_P1;PMS_P2;Temp;Humidity;BMP_temperature;BMP_pressure;BME280_temperature;BME280_humidity;BME280_pressure;Samples;Min_cycle;Max_cycle;Signal;HPM_P1;HPM_P2
2021/03/17 00:00:53;;;;;;;4.18;2.25;;;4.40;99.90;;;;;;4902653;29;20024;-87
2021/03/17 00:03:19;;;;;;;2.70;2.20;;;4.30;99.90;;;;;;4902558;29;20028;-87
2021/03/17 00:05:45;;;;;;;3.95;2.13;;;4.30;99.90;;;;;;4902550;29;20024;-87
2021/03/17 00:08:11;;;;;;;3.72;2.50;;;4.30;99.90;;;;;;4919436;29;20035;-87
2021/03/17 00:10:41;;;;;;;3.67;2.30;;;4.30;99.90;;;;;;4902359;29;20036;-87
2021/03/17 00:13:07;;;;;;;2.55;2.08;;;4.20;99.90;;;;;;4902459;29;20032;-86
2021/03/17 00:15:39;;;;;;;2.78;2.00;;;4.30;99.90;;;;;;4902519;29;20024;-87
2021/03/17 00:18:06;;;;;;;2.80;1.80;;;4.20;99.90;;;;;;4902241;29;20568;-87
2021/03/17 00:20:32;;;;;;;3.15;2.08;;;4.30;99.90;;;;;;4902207;29;20024;-87
2021/03/17 00:22:58;;;;;;;3.15;1.77;;;4.40;99.90;;;;;;4902241;29;20123;-87
2021/03/17 00:25:28;;;;;;;3.05;1.88;;;4.40;99.90;;;;;;4902109;29;20130;-87
2021/03/17 00:27:56;;;;;;;2.78;1.83;;;4.30;99.90;;;;;;4902335;29;20032;-87
2021/03/17 00:30:22;;;;;;;2.17;1.80;;;4.40;99.90;;;;;;4902150;29;20032;-87
2021/03/17 00:32:48;;;;;;;2.60;1.48;;;4.30;99.90;;;;;;4919100;29;20485;-86
2021/03/17 00:35:14;;;;;;;2.67;1.90;;;4.10;99.90;;;;;;4902020;29;20031;-87
2021/03/17 00:37:39;;;;;;;3.42;1.83;;;4.00;99.90;;;;;;4901906;29;20028;-87
2021/03/17 00:40:06;;;;;;;3.00;2.00;;;4.00;99.90;;;;;;4900905;29;20025;-87
2021/03/17 00:42:57;;;;;;;3.17;2.22;;;3.90;99.90;;;;;;4918780;29;20031;-87
2021/03/17 00:45:23;;;;;;;3.08;2.00;;;4.10;99.90;;;;;;4901821;29;20519;-87
2021/03/17 00:47:48;;;;;;;3.40;1.90;;;4.10;99.90;;;;;;4918799;29;20028;-87
2021/03/17 00:50:16;;;;;;;4.47;1.90;;;4.20;99.90;;;;;;4901772;29;20438;-87
2021/03/17 00:52:43;;;;;;;3.42;1.60;;;4.20;99.90;;;;;;4901702;29;20432;-87
2021/03/17 00:55:10;;;;;;;2.58;1.73;;;4.30;99.90;;;;;;4901635;29;20028;-88
2021/03/17 00:57:36;;;;;;;2.58;1.73;;;4.10;99.90;;;;;;4901556;29;20393;-87
2021/03/17 01:00:05;;;;;;;3.08;1.77;;;4.10;99.90;;;;;;4918487;29;20028;-88
2021/03/17 01:02:31;;;;;;;2.63;1.80;;;4.10;99.90;;;;;;4901525;29;20032;-88
2021/03/17 01:05:31;;;;;;;4.82;1.80;;;4.30;99.90;;;;;;4901559;29;20481;-87
2021/03/17 01:07:57;;;;;;;2.28;1.75;;;4.20;99.90;;;;;;4901453;29;20429;-88
2021/03/17 01:10:36;;;;;;;2.95;1.80;;;4.30;99.90;;;;;;4901383;29;20025;-87
2021/03/17 01:13:03;;;;;;;2.58;1.67;;;4.30;99.90;;;;;;4901436;29;20032;-88
2021/03/17 01:15:29;;;;;;;3.22;1.80;;;4.10;99.90;;;;;;4901281;29;20433;-87
2021/03/17 01:17:54;;;;;;;4.03;1.67;;;3.90;99.90;;;;;;4901140;29;20032;-87
2021/03/17 01:20:24;;;;;;;3.45;1.58;;;4.00;99.90;;;;;;4918121;29;20084;-87
2021/03/17 01:22:49;;;;;;;3.50;1.80;;;4.20;99.90;;;;;;4901152;29;20400;-88
2021/03/17 01:25:40;;;;;;;2.25;1.58;;;4.10;99.90;;;;;;4900914;29;20051;-87
2021/03/17 01:28:09;;;;;;;2.50;2.00;;;3.90;99.90;;;;;;4918109;29;20028;-88
2021/03/17 01:30:42;;;;;;;2.53;1.65;;;4.00;99.90;;;;;;4900894;29;20024;-87
2021/03/17 01:33:09;;;;;;;3.35;2.10;;;4.10;99.90;;;;;;4900954;29;20087;-87
2021/03/17 01:35:35;;;;;;;2.38;1.67;;;4.00;99.90;;;;;;4900936;29;20032;-88
2021/03/17 01:38:01;;;;;;;2.90;2.00;;;4.10;99.90;;;;;;4900763;29;20068;-88
2021/03/17 01:40:29;;;;;;;3.33;1.98;;;4.20;99.90;;;;;;4900819;29;20059;-87
2021/03/17 01:42:55;;;;;;;4.30;2.03;;;4.10;99.90;;;;;;4900867;29;20051;-88
2021/03/17 01:45:22;;;;;;;4.68;1.83;;;4.00;99.90;;;;;;4900808;29;20038;-88
2021/03/17 01:47:49;;;;;;;2.33;1.70;;;4.00;99.90;;;;;;4917715;29;20029;-88
2021/03/17 01:50:19;;;;;;;3.55;1.77;;;4.00;99.90;;;;;;4900717;29;20071;-87
2021/03/17 01:52:45;;;;;;;4.80;2.20;;;4.00;99.90;;;;;;4917309;29;20503;-87
2021/03/17 01:55:11;;;;;;;2.22;1.60;;;4.00;99.90;;;;;;4900627;29;20055;-87
2021/03/17 01:57:38;;;;;;;2.95;2.00;;;4.00;99.90;;;;;;4917617;29;20033;-88
2021/03/17 02:00:13;;;;;;;2.83;2.08;;;4.10;99.90;;;;;;4917770;29;20028;-87
2021/03/17 02:02:46;;;;;;;2.45;1.90;;;4.00;99.90;;;;;;4900528;29;20024;-88
2021/03/17 02:05:15;;;;;;;2.83;1.65;;;4.00;99.90;;;;;;4900571;29;20024;-87
2021/03/17 02:07:41;;;;;;;2.53;1.80;;;4.20;99.90;;;;;;4900728;29;20039;-88
2021/03/17 02:10:18;;;;;;;3.38;1.75;;;4.20;99.90;;;;;;4900505;29;20453;-88
2021/03/17 02:12:55;;;;;;;2.20;1.70;;;4.30;99.90;;;;;;4900394;29;20115;-88
2021/03/17 02:15:42;;;;;;;2.10;1.63;;;4.30;99.90;;;;;;4917741;29;20047;-88
2021/03/17 02:18:22;;;;;;;1.95;1.50;;;4.20;99.90;;;;;;4900321;29;20118;-88
2021/03/17 02:21:21;;;;;;;10.15;1.90;;;4.30;99.90;;;;;;4900380;29;20028;-88
2021/03/17 02:24:17;;;;;;;2.15;1.45;;;4.20;99.90;;;;;;4894795;29;20088;-87
2021/03/17 02:27:07;;;;;;;2.60;1.55;;;4.30;99.90;;;;;;4900422;29;20040;-87
2021/03/17 02:29:43;;;;;;;2.55;1.63;;;4.30;99.90;;;;;;4900367;29;20028;-88
2021/03/17 02:32:17;;;;;;;1.50;1.40;;;4.30;99.90;;;;;;4900381;29;20044;-87
2021/03/17 02:34:46;;;;;;;2.83;1.60;;;4.30;99.90;;;;;;4900412;29;20028;-87
2021/03/17 02:37:17;;;;;;;2.30;2.00;;;4.30;99.90;;;;;;4917219;29;20035;-88
2021/03/17 02:39:43;;;;;;;2.00;1.50;;;4.40;99.90;;;;;;4917271;29;20110;-87
2021/03/17 02:42:22;;;;;;;2.40;1.60;;;4.40;99.90;;;;;;4900203;29;20099;-88
2021/03/17 02:45:17;;;;;;;2.38;1.45;;;4.50;99.90;;;;;;4917149;29;20036;-88
2021/03/17 02:48:11;;;;;;;2.10;1.60;;;4.50;99.90;;;;;;4867050;29;20028;-87
2021/03/17 02:50:42;;;;;;;1.73;1.50;;;4.40;99.90;;;;;;4893350;29;20476;-87
2021/03/17 02:53:09;;;;;;;1.88;1.65;;;4.40;99.90;;;;;;4900458;29;20028;-88
2021/03/17 02:55:41;;;;;;;1.83;1.63;;;4.30;99.90;;;;;;4900202;29;20055;-88
2021/03/17 02:58:08;;;;;;;2.03;1.60;;;4.30;99.90;;;;;;4917056;29;20035;-88
2021/03/17 03:00:34;;;;;;;2.70;1.77;;;4.40;99.90;;;;;;4900163;29;20141;-87
2021/03/17 03:03:01;;;;;;;1.88;1.40;;;4.40;99.90;;;;;;4900086;29;20111;-88
2021/03/17 03:05:28;;;;;;;2.42;1.83;;;4.50;99.90;;;;;;4903713;29;20033;-88
2021/03/17 03:07:57;;;;;;;2.72;1.55;;;4.40;99.90;;;;;;4903561;29;20424;-87
2021/03/17 03:10:28;;;;;;;3.10;1.90;;;4.30;99.90;;;;;;4903559;29;20032;-87
2021/03/17 03:12:55;;;;;;;1.73;1.42;;;4.20;99.90;;;;;;4920523;29;20516;-88
2021/03/17 03:15:24;;;;;;;2.03;1.70;;;4.20;99.90;;;;;;4903515;29;20081;-87
2021/03/17 03:17:51;;;;;;;2.08;1.70;;;4.20;99.90;;;;;;4903395;29;20028;-87
2021/03/17 03:20:20;;;;;;;3.15;1.95;;;4.10;99.90;;;;;;4903403;29;20050;-87
2021/03/17 03:22:47;;;;;;;3.03;1.80;;;4.10;99.90;;;;;;4903353;29;20024;-88
2021/03/17 03:25:15;;;;;;;2.03;1.77;;;4.20;99.90;;;;;;4903142;29;20044;-87
2021/03/17 03:27:41;;;;;;;4.82;2.10;;;4.20;99.90;;;;;;4920214;29;20036;-87
2021/03/17 03:30:11;;;;;;;2.33;1.77;;;4.20;99.90;;;;;;4903358;29;20036;-88
2021/03/17 03:32:37;;;;;;;2.60;2.05;;;4.00;99.90;;;;;;4920034;29;20481;-87
2021/03/17 03:35:08;;;;;;;2.10;1.80;;;3.80;99.90;;;;;;4903393;29;20038;-88
2021/03/17 03:37:35;;;;;;;3.42;1.95;;;3.70;99.90;;;;;;4903061;29;20127;-88
2021/03/17 03:40:04;;;;;;;3.72;2.20;;;3.70;99.90;;;;;;4903007;29;20026;-88
2021/03/17 03:42:29;;;;;;;3.15;2.08;;;3.60;99.90;;;;;;4903029;29;20140;-88
2021/03/17 03:44:55;;;;;;;2.00;1.80;;;3.50;99.90;;;;;;4903289;29;20103;-88
2021/03/17 03:47:21;;;;;;;3.50;2.00;;;3.50;99.90;;;;;;4902942;29;20035;-88
2021/03/17 03:49:46;;;;;;;4.05;2.42;;;3.40;99.90;;;;;;4902839;29;20028;-88
2021/03/17 03:52:20;;;;;;;2.58;1.80;;;3.40;99.90;;;;;;4902867;29;20103;-88
2021/03/17 03:54:57;;;;;;;4.38;2.40;;;3.40;99.90;;;;;;4919842;29;20038;-88
2021/03/17 03:57:35;;;;;;;4.30;2.38;;;3.40;99.90;;;;;;4902821;29;20028;-88
2021/03/17 04:00:05;;;;;;;2.47;1.85;;;3.50;99.90;;;;;;4919929;29;20084;-88
2021/03/17 04:02:37;;;;;;;2.83;1.90;;;3.80;99.90;;;;;;4903182;29;20095;-88
2021/03/17 04:05:03;;;;;;;1.77;1.67;;;4.00;99.90;;;;;;4902733;29;20111;-88
2021/03/17 04:07:32;;;;;;;2.78;1.70;;;4.00;99.90;;;;;;4919481;29;20032;-88
2021/03/17 04:10:07;;;;;;;3.90;2.50;;;4.00;99.90;;;;;;4902556;29;20516;-88
2021/03/17 04:12:39;;;;;;;7.05;4.97;;;3.80;99.90;;;;;;4902469;29;20024;-87
2021/03/17 04:15:08;;;;;;;10.93;6.65;;;3.70;99.90;;;;;;4902239;29;20028;-88
2021/03/17 04:17:43;;;;;;;4.43;3.65;;;3.50;99.90;;;;;;4919356;29;20080;-88
2021/03/17 04:20:13;;;;;;;3.17;2.25;;;3.50;99.90;;;;;;4902399;29;20476;-88
2021/03/17 04:22:39;;;;;;;3.00;2.10;;;3.50;99.90;;;;;;4919341;29;20528;-89
2021/03/17 04:25:10;;;;;;;3.40;1.63;;;3.60;99.90;;;;;;4902125;29;20048;-88
2021/03/17 04:27:37;;;;;;;2.55;2.00;;;3.80;99.90;;;;;;4902242;29;20040;-88
2021/03/17 04:30:05;;;;;;;2.17;1.95;;;3.90;99.90;;;;;;4902278;29;20462;-88
2021/03/17 04:32:32;;;;;;;3.13;2.08;;;4.00;99.90;;;;;;4902125;29;20036;-88
2021/03/17 04:34:59;;;;;;;1.88;1.70;;;4.10;99.90;;;;;;4902133;29;20063;-88
2021/03/17 04:37:28;;;;;;;2.45;1.88;;;4.10;99.90;;;;;;4902041;29;20340;-88
2021/03/17 04:39:54;;;;;;;3.05;2.30;;;4.20;99.90;;;;;;4918863;29;20036;-88
2021/03/17 04:42:20;;;;;;;2.72;2.00;;;3.90;99.90;;;;;;4901958;29;20028;-89
2021/03/17 04:44:48;;;;;;;2.53;2.00;;;3.90;99.90;;;;;;4919217;29;20016;-88
2021/03/17 04:47:14;;;;;;;3.15;2.35;;;4.00;99.90;;;;;;4918775;29;20032;-88
2021/03/17 04:49:45;;;;;;;3.55;2.30;;;3.90;99.90;;;;;;4901802;29;20039;-88
2021/03/17 04:52:14;;;;;;;3.25;2.65;;;3.90;99.90;;;;;;4918775;29;20040;-88
2021/03/17 04:54:40;;;;;;;5.10;4.10;;;4.00;99.90;;;;;;4901760;29;20521;-88
2021/03/17 04:57:11;;;;;;;4.63;3.75;;;4.00;99.90;;;;;;4901651;29;20032;-88
2021/03/17 04:59:39;;;;;;;3.53;3.17;;;4.10;99.90;;;;;;4901570;29;20024;-87
2021/03/17 05:02:05;;;;;;;4.95;4.15;;;4.20;99.90;;;;;;4918557;29;20032;-88
2021/03/17 05:04:33;;;;;;;4.50;4.03;;;4.10;99.90;;;;;;4901546;29;20035;-88
2021/03/17 05:07:01;;;;;;;4.25;3.17;;;4.00;99.90;;;;;;4901483;29;20024;-88
2021/03/17 05:09:27;;;;;;;3.05;2.75;;;3.90;99.90;;;;;;4901490;29;20028;-88
2021/03/17 05:11:53;;;;;;;4.07;3.67;;;3.90;99.90;;;;;;4901404;29;20076;-88
2021/03/17 05:14:19;;;;;;;5.97;4.45;;;4.00;99.90;;;;;;4901260;29;20508;-88
2021/03/17 05:16:45;;;;;;;6.40;4.80;;;4.10;99.90;;;;;;4901365;29;20036;-87
2021/03/17 05:19:13;;;;;;;4.93;4.43;;;4.10;99.90;;;;;;4901371;29;20039;-88
2021/03/17 05:21:40;;;;;;;4.82;4.32;;;4.00;99.90;;;;;;4901226;29;20020;-88
2021/03/17 05:24:07;;;;;;;5.43;4.03;;;4.10;99.90;;;;;;4901295;29;20060;-88
2021/03/17 05:26:35;;;;;;;4.70;4.25;;;4.00;99.90;;;;;;4900587;29;20425;-87
2021/03/17 05:29:02;;;;;;;8.18;6.10;;;4.10;99.90;;;;;;4901171;29;20035;-88
2021/03/17 05:31:29;;;;;;;7.07;5.53;;;4.10;99.90;;;;;;4900861;29;20393;-88
2021/03/17 05:33:55;;;;;;;9.95;5.65;;;4.00;99.90;;;;;;4900941;29;20028;-88
2021/03/17 05:36:20;;;;;;;7.18;5.32;;;4.00;99.90;;;;;;4901038;29;20044;-88
2021/03/17 05:38:47;;;;;;;6.10;5.15;;;4.00;99.90;;;;;;4917851;29;20080;-88
2021/03/17 05:41:13;;;;;;;5.10;4.60;;;4.00;99.90;;;;;;4900953;29;20025;-88
2021/03/17 05:43:40;;;;;;;8.10;5.65;;;4.00;99.90;;;;;;4900890;29;20392;-88
2021/03/17 05:46:06;;;;;;;5.85;5.07;;;3.90;99.90;;;;;;4900839;29;20021;-87
2021/03/17 05:48:33;;;;;;;8.25;7.13;;;3.90;99.90;;;;;;4900818;29;20032;-88
2021/03/17 05:51:02;;;;;;;4.40;3.55;;;3.80;99.90;;;;;;4900876;29;20034;-88
2021/03/17 05:53:28;;;;;;;8.18;6.20;;;3.90;99.90;;;;;;4900736;29;20035;-88
2021/03/17 05:55:59;;;;;;;8.82;6.68;;;4.10;99.90;;;;;;4900730;29;20032;-88
2021/03/17 05:58:26;;;;;;;7.57;5.63;;;4.00;99.90;;;;;;4900856;29;20024;-88
2021/03/17 06:00:51;;;;;;;9.50;6.65;;;4.10;99.90;;;;;;4900562;29;20036;-87
2021/03/17 06:03:18;;;;;;;11.68;8.80;;;4.10;99.90;;;;;;4900574;29;20099;-87
2021/03/17 06:05:47;;;;;;;8.13;6.93;;;4.20;99.90;;;;;;4900523;29;20365;-87
2021/03/17 06:08:18;;;;;;;7.18;5.88;;;4.20;99.90;;;;;;4900415;29;20062;-86
2021/03/17 06:10:44;;;;;;;9.90;8.05;;;4.30;99.90;;;;;;4900260;29;20047;-87
2021/03/17 06:13:15;;;;;;;10.13;7.93;;;4.30;99.90;;;;;;4900260;29;20055;-87
2021/03/17 06:15:56;;;;;;;9.70;7.13;;;4.40;99.90;;;;;;4900406;29;20087;-86
2021/03/17 06:18:27;;;;;;;7.13;6.18;;;4.30;99.90;;;;;;4900451;29;20040;-87
2021/03/17 06:20:54;;;;;;;9.27;8.25;;;4.20;99.90;;;;;;4900377;29;20384;-87
2021/03/17 06:23:20;;;;;;;9.63;8.15;;;4.30;99.90;;;;;;4900312;29;20062;-87
2021/03/17 06:25:46;;;;;;;10.85;8.48;;;4.30;99.90;;;;;;4900122;29;20135;-86
2021/03/17 06:28:14;;;;;;;9.15;7.93;;;4.30;99.90;;;;;;4900282;29;20484;-86
2021/03/17 06:30:40;;;;;;;9.82;7.28;;;4.20;99.90;;;;;;4900298;29;20032;-87
2021/03/17 06:33:06;;;;;;;13.30;9.32;;;4.30;99.90;;;;;;4917197;29;20028;-87
2021/03/17 06:35:32;;;;;;;12.35;8.60;;;4.20;99.90;;;;;;4900207;29;20377;-86
2021/03/17 06:37:59;;;;;;;10.32;8.35;;;4.20;99.90;;;;;;4901689;29;20148;-87
2021/03/17 06:40:31;;;;;;;9.70;8.07;;;4.10;99.90;;;;;;4921025;29;20107;-86
2021/03/17 06:43:09;;;;;;;10.82;8.20;;;4.10;99.90;;;;;;4904092;29;20055;-87
2021/03/17 06:45:39;;;;;;;12.68;9.88;;;4.10;99.90;;;;;;4904022;29;20110;-87
2021/03/17 06:48:19;;;;;;;10.98;7.95;;;4.10;99.90;;;;;;4904493;29;20028;-86
2021/03/17 06:50:45;;;;;;;12.55;9.60;;;4.20;99.90;;;;;;4903962;29;20016;-87
2021/03/17 06:53:11;;;;;;;11.30;9.18;;;4.40;99.90;;;;;;4920861;29;20028;-86
2021/03/17 06:55:36;;;;;;;8.90;7.18;;;4.50;99.90;;;;;;4903761;29;20027;-87
2021/03/17 06:58:02;;;;;;;12.23;9.60;;;4.50;99.90;;;;;;4904252;29;20131;-87
2021/03/17 07:00:35;;;;;;;10.55;8.70;;;4.40;99.90;;;;;;4920753;29;20035;-87
2021/03/17 07:03:06;;;;;;;11.70;8.33;;;4.30;99.90;;;;;;4903832;29;20035;-87
2021/03/17 07:05:37;;;;;;;10.13;8.48;;;4.30;99.90;;;;;;4903665;29;20303;-87
2021/03/17 07:08:05;;;;;;;11.77;9.10;;;4.20;99.90;;;;;;4903653;29;20396;-87
2021/03/17 07:10:38;;;;;;;8.02;6.70;;;4.10;99.90;;;;;;4903805;29;20088;-86
2021/03/17 07:13:06;;;;;;;9.20;7.25;;;3.90;99.90;;;;;;4904073;29;20024;-86
2021/03/17 07:15:33;;;;;;;12.43;7.20;;;3.80;99.90;;;;;;4921086;29;20028;-86
2021/03/17 07:18:18;;;;;;;9.48;6.20;;;3.60;99.90;;;;;;4920951;29;20023;-86
2021/03/17 07:20:55;;;;;;;9.68;6.82;;;3.80;99.90;;;;;;4903905;29;20052;-85
2021/03/17 07:23:27;;;;;;;10.25;7.07;;;3.50;99.90;;;;;;4904784;29;20100;-85
2021/03/17 07:26:19;;;;;;;7.63;6.15;;;3.50;99.90;;;;;;4903558;29;20071;-86
2021/03/17 07:28:48;;;;;;;11.52;6.80;;;3.60;99.90;;;;;;4903729;29;20523;-86
2021/03/17 07:31:32;;;;;;;9.35;5.97;;;3.60;99.90;;;;;;4920539;29;20028;-86
2021/03/17 07:34:21;;;;;;;11.13;7.13;;;3.70;99.90;;;;;;4903556;29;20035;-86
2021/03/17 07:37:01;;;;;;;15.95;9.80;;;3.80;99.90;;;;;;4903608;29;20476;-86
2021/03/17 07:39:34;;;;;;;13.20;8.65;;;3.80;99.90;;;;;;4920564;29;20028;-85
2021/03/17 07:42:04;;;;;;;12.37;7.37;;;3.80;99.90;;;;;;4903595;29;20119;-86
2021/03/17 07:44:30;;;;;;;10.55;7.13;;;3.80;99.90;;;;;;4920302;29;20024;-86
2021/03/17 07:46:58;;;;;;;13.18;7.75;;;3.80;99.90;;;;;;4903367;29;20031;-85
2021/03/17 07:49:25;;;;;;;15.80;7.85;;;3.90;99.90;;;;;;4919663;29;20035;-85
2021/03/17 07:51:56;;;;;;;9.70;6.53;;;4.20;99.90;;;;;;4920628;29;20040;-86
2021/03/17 07:54:27;;;;;;;12.80;8.10;;;4.30;99.90;;;;;;4903657;29;20032;-86
2021/03/17 07:56:55;;;;;;;12.43;8.20;;;4.40;99.90;;;;;;4920293;29;20061;-86
2021/03/17 07:59:22;;;;;;;11.55;7.68;;;4.30;99.90;;;;;;4903190;29;20048;-86
2021/03/17 08:01:49;;;;;;;13.48;7.75;;;4.40;99.90;;;;;;4920211;29;20016;-86
2021/03/17 08:04:15;;;;;;;14.02;7.93;;;4.40;99.90;;;;;;4903430;29;20028;-86
2021/03/17 08:06:41;;;;;;;17.60;10.02;;;4.30;99.90;;;;;;4903310;29;20039;-86
2021/03/17 08:09:08;;;;;;;14.35;8.00;;;4.20;99.90;;;;;;4903087;29;20083;-86
2021/03/17 08:11:34;;;;;;;12.13;7.50;;;4.30;99.90;;;;;;4902986;29;20139;-86
2021/03/17 08:14:01;;;;;;;12.75;8.32;;;4.50;99.90;;;;;;4902884;29;20392;-86
2021/03/17 08:16:30;;;;;;;12.48;7.15;;;4.50;99.90;;;;;;4919892;29;20103;-86
2021/03/17 08:18:56;;;;;;;12.48;7.55;;;4.60;99.90;;;;;;4902809;29;20092;-87
2021/03/17 08:21:45;;;;;;;12.05;8.65;;;4.70;99.90;;;;;;4902954;29;20491;-86
2021/03/17 08:24:30;;;;;;;10.38;6.72;;;4.80;99.90;;;;;;4902370;29;20020;-86
2021/03/17 08:26:57;;;;;;;18.45;9.13;;;5.10;99.90;;;;;;4902848;29;20043;-87
2021/03/17 08:29:22;;;;;;;15.75;7.68;;;4.90;99.90;;;;;;4902728;29;20034;-86
2021/03/17 08:31:50;;;;;;;20.77;8.68;;;4.90;99.90;;;;;;4902621;29;20028;-87
2021/03/17 08:34:24;;;;;;;13.70;7.43;;;4.70;99.90;;;;;;4902603;29;20036;-87
2021/03/17 08:36:51;;;;;;;13.68;7.53;;;4.60;99.90;;;;;;4902795;29;20115;-87
2021/03/17 08:39:29;;;;;;;18.42;11.13;;;4.80;99.90;;;;;;4902605;29;20063;-87
2021/03/17 08:41:59;;;;;;;11.70;6.97;;;4.90;99.90;;;;;;4902673;29;20084;-87
2021/03/17 08:44:30;;;;;;;11.02;7.30;;;5.00;99.90;;;;;;4919305;29;20024;-86
2021/03/17 08:47:21;;;;;;;11.52;6.13;;;4.80;99.90;;;;;;4919366;29;20035;-86
2021/03/17 08:49:49;;;;;;;13.73;6.45;;;4.90;99.90;;;;;;4902286;29;20032;-86
2021/03/17 08:52:23;;;;;;;12.18;6.13;;;5.10;99.90;;;;;;4902435;29;20052;-86
2021/03/17 08:54:59;;;;;;;15.45;6.60;;;5.10;99.90;;;;;;4902265;29;20024;-86
2021/03/17 08:57:52;;;;;;;13.07;6.30;;;5.00;99.90;;;;;;4902418;29;20059;-85
2021/03/17 09:00:43;;;;;;;12.20;5.28;;;5.40;99.90;;;;;;4919734;29;20433;-85
2021/03/17 09:03:29;;;;;;;15.27;4.78;;;5.70;99.90;;;;;;4901899;29;20111;-85
2021/03/17 09:06:19;;;;;;;13.55;4.90;;;6.00;99.90;;;;;;4901742;29;20473;-85
2021/03/17 09:08:55;;;;;;;10.30;4.97;;;6.20;99.90;;;;;;4901934;29;20067;-85
2021/03/17 09:11:29;;;;;;;7.65;4.10;;;6.60;99.90;;;;;;4901873;29;20444;-86
2021/03/17 09:14:04;;;;;;;7.15;3.80;;;6.60;99.90;;;;;;4901676;29;20033;-86
2021/03/17 09:16:33;;;;;;;7.53;3.97;;;6.70;99.90;;;;;;4901269;29;20388;-86
2021/03/17 09:19:08;;;;;;;12.98;3.92;;;6.60;99.90;;;;;;4901190;29;20507;-85
2021/03/17 09:21:36;;;;;;;9.73;3.78;;;6.90;99.90;;;;;;4901159;29;20032;-85
2021/03/17 09:24:02;;;;;;;6.75;3.75;;;7.10;99.90;;;;;;4901104;29;20024;-85
2021/03/17 09:26:31;;;;;;;7.93;3.80;;;7.40;99.90;;;;;;4900934;29;20441;-85
2021/03/17 09:29:09;;;;;;;5.20;3.10;;;7.30;99.90;;;;;;4917976;29;20481;-85
2021/03/17 09:31:35;;;;;;;6.60;3.15;;;7.10;99.90;;;;;;4901015;29;20024;-86
2021/03/17 09:34:00;;;;;;;4.88;3.10;;;6.90;99.90;;;;;;4918236;29;20112;-86
2021/03/17 09:36:28;;;;;;;8.68;3.58;;;6.60;99.90;;;;;;4901263;29;20481;-86
2021/03/17 09:38:55;;;;;;;5.45;2.97;;;6.60;99.90;;;;;;4900716;29;20059;-85
2021/03/17 09:41:24;;;;;;;6.75;2.80;;;6.90;99.90;;;;;;4900876;29;20032;-85
2021/03/17 09:44:04;;;;;;;4.80;2.97;;;7.20;99.90;;;;;;4900803;29;20028;-85
2021/03/17 09:46:41;;;;;;;6.72;3.13;;;7.60;99.90;;;;;;4900800;29;20028;-85
2021/03/17 09:49:11;;;;;;;5.45;2.75;;;8.10;99.90;;;;;;4900790;29;20055;-85
2021/03/17 09:51:50;;;;;;;6.32;2.90;;;8.40;99.90;;;;;;4901209;29;20028;-85
2021/03/17 09:54:18;;;;;;;6.55;2.70;;;8.40;99.90;;;;;;4900658;29;20024;-85
2021/03/17 09:56:57;;;;;;;6.38;3.72;;;8.80;99.90;;;;;;4900606;29;20503;-85
2021/03/17 09:59:34;;;;;;;6.07;3.30;;;8.70;99.90;;;;;;4900498;29;20084;-86
2021/03/17 10:02:00;;;;;;;8.70;3.78;;;8.40;99.90;;;;;;4901115;29;20433;-86
2021/03/17 10:04:35;;;;;;;6.75;3.90;;;8.00;99.90;;;;;;4900505;29;20020;-86
2021/03/17 10:07:03;;;;;;;6.82;3.80;;;7.90;99.90;;;;;;4900545;29;20115;-86
2021/03/17 10:09:31;;;;;;;5.50;3.75;;;7.80;99.90;;;;;;4900375;29;20084;-86
2021/03/17 10:12:00;;;;;;;5.65;3.42;;;7.70;99.90;;;;;;4917606;29;20032;-86
2021/03/17 10:14:26;;;;;;;8.95;4.45;;;7.60;99.90;;;;;;4900345;29;20099;-85
2021/03/17 10:16:53;;;;;;;8.77;3.80;;;7.80;99.90;;;;;;4900279;29;20036;-86
2021/03/17 10:19:19;;;;;;;5.63;3.17;;;7.60;99.90;;;;;;4900567;29;20039;-86
2021/03/17 10:21:45;;;;;;;5.95;3.20;;;7.80;99.90;;;;;;4900320;29;20071;-85
2021/03/17 10:24:11;;;;;;;6.05;3.22;;;8.20;99.90;;;;;;4900151;29;20024;-85
2021/03/17 10:26:38;;;;;;;5.70;2.92;;;8.70;99.90;;;;;;4900305;29;20032;-84
2021/03/17 10:29:05;;;;;;;4.57;2.60;;;9.20;99.90;;;;;;4900247;29;20032;-85
2021/03/17 10:31:35;;;;;;;4.75;2.65;;;9.30;99.90;;;;;;4917185;29;20024;-85
2021/03/17 10:34:01;;;;;;;3.85;2.60;;;9.40;99.90;;;;;;4917473;29;20536;-85
2021/03/17 10:36:36;;;;;;;6.68;2.65;;;9.30;99.90;;;;;;4900157;29;20024;-85
2021/03/17 10:39:02;;;;;;;3.85;2.40;;;9.30;99.90;;;;;;4900172;29;20040;-85
2021/03/17 10:41:43;;;;;;;3.70;2.38;;;9.40;99.90;;;;;;4900156;29;20028;-86
2021/03/17 10:44:17;;;;;;;3.80;2.20;;;9.30;99.90;;;;;;4900114;29;20028;-86
2021/03/17 10:47:09;;;;;;;3.13;2.53;;;9.10;99.90;;;;;;4916959;29;20561;-86
2021/03/17 10:49:47;;;;;;;4.07;2.50;;;8.80;99.90;;;;;;4900076;29;20024;-86
2021/03/17 10:52:13;;;;;;;6.00;2.60;;;8.60;99.90;;;;;;4900251;29;20036;-85
2021/03/17 10:54:40;;;;;;;5.03;2.53;;;8.70;99.90;;;;;;4900010;29;20035;-85
2021/03/17 10:57:07;;;;;;;3.80;2.47;;;8.50;99.90;;;;;;4900032;29;20459;-85
2021/03/17 10:59:39;;;;;;;4.50;2.55;;;8.50;99.90;;;;;;4899939;29;20039;-85
2021/03/17 11:02:20;;;;;;;5.10;2.53;;;8.70;99.90;;;;;;4916953;29;20429;-86
2021/03/17 11:05:12;;;;;;;3.20;2.47;;;8.70;99.90;;;;;;4900009;29;20031;-85
2021/03/17 11:08:06;;;;;;;5.20;3.03;;;9.00;99.90;;;;;;4899948;29;20064;-86
2021/03/17 11:10:34;;;;;;;4.53;2.40;;;9.10;99.90;;;;;;4899974;29;20032;-85
2021/03/17 11:13:01;;;;;;;6.75;2.40;;;9.10;99.90;;;;;;4899873;29;20036;-85
2021/03/17 11:15:30;;;;;;;2.97;2.17;;;8.80;99.90;;;;;;4899874;29;20035;-86
2021/03/17 11:17:57;;;;;;;5.82;2.58;;;8.50;99.90;;;;;;4916818;29;20111;-86
2021/03/17 11:20:25;;;;;;;5.25;2.40;;;8.40;99.90;;;;;;4899834;29;20040;-85
2021/03/17 11:22:51;;;;;;;4.13;2.60;;;8.60;99.90;;;;;;4900353;29;20056;-86
2021/03/17 11:25:24;;;;;;;5.05;2.50;;;8.30;99.90;;;;;;4901349;29;20055;-86
2021/03/17 11:27:51;;;;;;;5.70;2.42;;;8.00;99.90;;;;;;4903222;29;20469;-86
2021/03/17 11:30:17;;;;;;;3.55;2.47;;;8.30;99.90;;;;;;4903190;29;20425;-86
2021/03/17 11:32:43;;;;;;;4.75;2.70;;;8.50;99.90;;;;;;4903052;29;20032;-86
2021/03/17 11:35:10;;;;;;;4.55;2.55;;;8.50;99.90;;;;;;4920103;29;20035;-86
2021/03/17 11:37:35;;;;;;;5.22;3.05;;;8.40;99.90;;;;;;4903111;29;20500;-85
2021/03/17 11:40:02;;;;;;;6.72;3.45;;;8.40;99.90;;;;;;4902988;29;20040;-86
2021/03/17 11:42:28;;;;;;;5.40;3.50;;;8.80;99.90;;;;;;4902975;29;20025;-86
2021/03/17 11:44:54;;;;;;;5.25;3.45;;;9.10;99.90;;;;;;4919893;29;20413;-86
2021/03/17 11:47:20;;;;;;;6.95;3.30;;;8.90;99.90;;;;;;4919951;29;20062;-86
2021/03/17 11:49:45;;;;;;;6.75;3.58;;;8.50;99.90;;;;;;4902911;29;20028;-86
2021/03/17 11:52:11;;;;;;;4.93;3.33;;;8.30;99.90;;;;;;4920074;29;20361;-86
2021/03/17 11:54:37;;;;;;;6.45;3.33;;;8.00;99.90;;;;;;4902786;29;20035;-86
2021/03/17 11:57:03;;;;;;;5.50;2.75;;;7.80;99.90;;;;;;4902730;29;20029;-86
2021/03/17 11:59:29;;;;;;;5.13;3.00;;;7.40;99.90;;;;;;4902628;29;20039;-86
2021/03/17 12:01:55;;;;;;;6.10;3.10;;;7.40;99.90;;;;;;4902628;29;20037;-85
2021/03/17 12:04:20;;;;;;;4.25;2.80;;;7.30;99.90;;;;;;4902577;29;20028;-86
2021/03/17 12:06:46;;;;;;;4.57;3.10;;;7.30;99.90;;;;;;4902582;29;20027;-86
2021/03/17 12:09:12;;;;;;;6.03;3.05;;;7.30;99.90;;;;;;4902524;29;20032;-86
2021/03/17 12:11:41;;;;;;;6.07;2.95;;;7.40;99.90;;;;;;4902504;29;20059;-86
2021/03/17 12:14:07;;;;;;;5.05;3.03;;;7.20;99.90;;;;;;4902388;29;20028;-85
2021/03/17 12:16:33;;;;;;;5.72;3.55;;;7.10;99.90;;;;;;4902380;29;20480;-86
2021/03/17 12:18:59;;;;;;;5.93;3.90;;;6.90;99.90;;;;;;4902278;29;20032;-86
2021/03/17 12:21:25;;;;;;;6.90;3.53;;;6.80;99.90;;;;;;4919280;29;20030;-86
2021/03/17 12:23:51;;;;;;;7.05;3.40;;;6.60;99.90;;;;;;4919267;29;20031;-85
2021/03/17 12:26:17;;;;;;;6.47;4.18;;;6.60;99.90;;;;;;4919032;29;20032;-86
2021/03/17 12:28:43;;;;;;;10.70;4.57;;;7.00;99.90;;;;;;4902216;29;20119;-86
2021/03/17 12:31:09;;;;;;;9.95;4.68;;;8.10;99.90;;;;;;4919101;29;20036;-86
2021/03/17 12:33:35;;;;;;;6.03;4.10;;;8.50;99.90;;;;;;4902135;29;20035;-86
2021/03/17 12:36:02;;;;;;;7.70;4.30;;;8.20;99.90;;;;;;4901935;29;20119;-85
2021/03/17 12:38:28;;;;;;;6.53;4.00;;;7.70;99.90;;;;;;4901980;29;20039;-86
2021/03/17 12:40:54;;;;;;;12.43;4.68;;;7.40;99.90;;;;;;4901934;29;20031;-86
2021/03/17 12:43:19;;;;;;;6.97;4.20;;;6.90;99.90;;;;;;4901841;29;20036;-86
2021/03/17 12:45:46;;;;;;;7.88;5.40;;;6.70;99.90;;;;;;4918828;29;20024;-85
2021/03/17 12:48:13;;;;;;;10.38;4.95;;;6.40;99.90;;;;;;4901805;29;20032;-86
2021/03/17 12:50:39;;;;;;;10.88;6.75;;;6.00;99.90;;;;;;4901752;29;20036;-86
2021/03/17 12:53:04;;;;;;;7.15;5.47;;;5.60;99.90;;;;;;4901785;29;20039;-86
2021/03/17 12:55:30;;;;;;;8.50;6.10;;;5.60;99.90;;;;;;4901675;29;20047;-86
2021/03/17 12:57:56;;;;;;;10.57;6.60;;;5.70;99.90;;;;;;4918938;29;20028;-86
2021/03/17 13:00:24;;;;;;;13.57;7.07;;;5.70;99.90;;;;;;4901545;29;20040;-86
2021/03/17 13:02:50;;;;;;;10.32;5.95;;;5.80;99.90;;;;;;4902045;29;20119;-87
2021/03/17 13:05:17;;;;;;;10.63;7.10;;;5.80;99.90;;;;;;4901403;29;20107;-87
2021/03/17 13:07:42;;;;;;;11.75;6.97;;;5.70;99.90;;;;;;4901322;29;20119;-86
2021/03/17 13:10:14;;;;;;;15.45;8.82;;;5.60;99.90;;;;;;4901422;29;20119;-86